createdAt,value
2019-04-14T00:01:54.422Z,9.60
2019-04-14T00:04:31.309Z,10.47
2019-04-14T00:07:03.772Z,9.90
2019-04-14T00:09:36.058Z,11.13
2019-04-14T00:12:10.537Z,10.27
2019-04-14T00:14:42.879Z,10.10
2019-04-14T00:17:15.490Z,10.30
2019-04-14T00:19:47.987Z,10.53
2019-04-14T00:22:20.595Z,10.80
2019-04-14T00:24:53.236Z,10.70
2019-04-14T00:27:25.952Z,10.37
2019-04-14T00:29:58.997Z,10.13
2019-04-14T00:32:46.481Z,10.63
2019-04-14T00:35:40.659Z,9.40
2019-04-14T00:38:17.427Z,9.63
2019-04-14T00:41:15.948Z,10.70
2019-04-14T00:43:59.155Z,9.53
2019-04-14T00:46:49.510Z,9.27
2019-04-14T00:49:22.146Z,10.27
2019-04-14T00:51:55.002Z,10.30
2019-04-14T00:54:28.239Z,9.60
2019-04-14T00:57:00.878Z,10.37
2019-04-14T00:59:33.401Z,11.13
2019-04-14T01:02:05.801Z,11.30
2019-04-14T01:04:38.304Z,10.43
2019-04-14T01:07:10.765Z,10.60
2019-04-14T01:09:44.238Z,10.47
2019-04-14T01:12:17.093Z,10.33
2019-04-14T01:14:49.621Z,10.70
2019-04-14T01:17:22.075Z,10.57
2019-04-14T01:19:54.886Z,10.90
2019-04-14T01:22:27.161Z,10.60
2019-04-14T01:24:59.966Z,11.20
2019-04-14T01:27:32.649Z,10.67
2019-04-14T01:30:06.640Z,11.23
2019-04-14T01:32:39.413Z,10.93
2019-04-14T01:35:11.760Z,10.77
2019-04-14T01:37:44.383Z,11.50
2019-04-14T01:40:18.430Z,11.20
2019-04-14T01:42:51.151Z,11.73
2019-04-14T01:45:23.712Z,12.00
2019-04-14T01:47:57.402Z,12.20
2019-04-14T01:50:51.824Z,11.93
2019-04-14T01:53:43.146Z,11.20
2019-04-14T01:56:36.234Z,10.90
2019-04-14T01:59:08.751Z,12.27
2019-04-14T02:01:41.761Z,12.40
2019-04-14T02:04:13.992Z,12.03
2019-04-14T02:06:46.307Z,12.23
2019-04-14T02:09:18.718Z,11.73
2019-04-14T02:11:51.057Z,11.67
2019-04-14T02:14:23.381Z,11.60
2019-04-14T02:16:58.860Z,12.13
2019-04-14T02:19:30.641Z,11.83
2019-04-14T02:22:03.354Z,11.47
2019-04-14T02:24:35.541Z,11.63
2019-04-14T02:27:07.793Z,11.47
2019-04-14T02:29:40.769Z,11.77
2019-04-14T02:32:42.437Z,12.63
2019-04-14T02:35:20.914Z,11.87
2019-04-14T02:40:34.868Z,12.07
2019-04-14T02:43:17.613Z,11.33
2019-04-14T02:45:35.357Z,11.97
2019-04-14T02:53:18.436Z,11.50
2019-04-14T02:55:48.977Z,10.83
2019-04-14T02:58:26.475Z,11.73
2019-04-14T03:00:58.364Z,11.27
2019-04-14T03:08:45.350Z,10.53
2019-04-14T03:11:09.611Z,11.13
2019-04-14T03:13:44.980Z,10.80
2019-04-14T03:16:23.403Z,12.07
2019-04-14T03:19:07.398Z,10.10
2019-04-14T03:22:12.617Z,10.50
2019-04-14T03:24:37.573Z,11.07
2019-04-14T03:30:46.139Z,11.40
2019-04-14T03:33:24.192Z,11.23
2019-04-14T03:38:15.884Z,11.30
2019-04-14T03:40:45.839Z,12.17
2019-04-14T03:43:19.663Z,11.77
2019-04-14T03:45:53.873Z,11.17
2019-04-14T03:48:48.606Z,11.10
2019-04-14T03:51:06.762Z,10.90
2019-04-14T03:53:44.059Z,11.97
2019-04-14T03:56:17.687Z,11.27
2019-04-14T03:58:51.046Z,10.07
2019-04-14T04:01:23.743Z,11.60
2019-04-14T04:03:56.431Z,10.23
2019-04-14T04:06:29.246Z,10.87
2019-04-14T04:09:01.993Z,10.60
2019-04-14T04:11:34.566Z,11.80
2019-04-14T04:14:07.476Z,11.00
2019-04-14T04:17:05.777Z,11.00
2019-04-14T04:19:43.277Z,10.83
2019-04-14T04:22:34.647Z,10.87
2019-04-14T04:25:31.052Z,11.30
2019-04-14T04:28:25.923Z,11.43
2019-04-14T04:31:20.565Z,11.83
2019-04-14T04:34:03.332Z,11.20
2019-04-14T04:36:40.264Z,11.33
2019-04-14T04:39:21.677Z,11.63
2019-04-14T04:41:53.872Z,12.17
2019-04-14T04:44:27.030Z,12.00
2019-04-14T04:46:59.234Z,11.83
2019-04-14T04:49:32.909Z,12.50
2019-04-14T04:52:06.251Z,11.70
2019-04-14T04:54:38.785Z,11.73
2019-04-14T04:57:11.293Z,11.63
2019-04-14T04:59:43.405Z,11.00
2019-04-14T05:02:15.886Z,12.27
2019-04-14T05:04:48.375Z,11.57
2019-04-14T05:07:21.304Z,11.83
2019-04-14T05:10:13.254Z,12.67
2019-04-14T05:13:03.621Z,12.90
2019-04-14T05:15:57.468Z,10.57
2019-04-14T05:18:29.802Z,12.10
2019-04-14T05:21:02.146Z,12.40
2019-04-14T05:23:34.454Z,12.17
2019-04-14T05:26:07.083Z,11.57
2019-04-14T05:28:39.633Z,11.57
2019-04-14T05:31:12.193Z,12.03
2019-04-14T05:33:44.753Z,10.77
2019-04-14T05:36:17.152Z,11.30
2019-04-14T05:38:49.630Z,11.33
2019-04-14T05:41:22.302Z,10.97
2019-04-14T05:43:58.152Z,10.63
2019-04-14T05:46:29.531Z,11.60
2019-04-14T05:49:02.208Z,11.47
2019-04-14T05:51:35.114Z,11.37
2019-04-14T05:54:07.802Z,11.37
2019-04-14T05:56:40.729Z,11.07
2019-04-14T05:59:13.482Z,12.60
2019-04-14T06:01:46.525Z,11.33
2019-04-14T06:04:19.940Z,9.57
2019-04-14T06:06:52.577Z,10.30
2019-04-14T06:09:25.037Z,10.53
2019-04-14T06:11:57.382Z,9.77
2019-04-14T06:14:29.690Z,8.93
2019-04-14T06:17:02.018Z,9.67
2019-04-14T06:19:37.890Z,9.53
2019-04-14T06:22:08.337Z,9.50
2019-04-14T06:24:40.552Z,9.70
2019-04-14T06:27:12.880Z,8.70
2019-04-14T06:29:45.471Z,8.60
2019-04-14T06:32:27.266Z,9.27
2019-04-14T06:35:12.296Z,8.97
2019-04-14T06:37:54.250Z,8.47
2019-04-14T06:40:29.105Z,8.97
2019-04-14T06:43:01.860Z,9.80
2019-04-14T06:45:34.362Z,9.60
2019-04-14T06:48:06.931Z,9.03
2019-04-14T06:50:39.842Z,9.73
2019-04-14T06:53:12.211Z,9.13
2019-04-14T06:55:44.499Z,9.47
2019-04-14T06:58:16.589Z,9.60
2019-04-14T07:00:49.187Z,10.17
2019-04-14T07:03:21.720Z,10.77
2019-04-14T07:05:53.999Z,10.03
2019-04-14T07:08:26.468Z,9.90
2019-04-14T07:10:58.998Z,9.07
2019-04-14T07:13:31.315Z,10.20
2019-04-14T07:16:03.812Z,10.47
2019-04-14T07:18:35.993Z,11.10
2019-04-14T07:21:08.514Z,12.17
2019-04-14T07:23:40.717Z,10.70
2019-04-14T07:26:13.126Z,11.73
2019-04-14T07:28:56.145Z,11.80
2019-04-14T07:31:44.960Z,10.47
2019-04-14T07:34:37.591Z,11.53
2019-04-14T07:37:28.383Z,12.47
2019-04-14T07:40:23.241Z,10.37
2019-04-14T07:43:06.091Z,11.63
2019-04-14T07:45:51.970Z,12.90
2019-04-14T07:48:42.467Z,12.43
2019-04-14T07:51:40.681Z,12.10
2019-04-14T07:54:18.973Z,12.63
2019-04-14T07:57:19.301Z,13.10
2019-04-14T07:59:56.515Z,13.10
2019-04-14T08:02:34.609Z,13.17
2019-04-14T08:05:10.404Z,13.17
2019-04-14T08:07:43.348Z,13.57
2019-04-14T08:10:15.974Z,13.13
2019-04-14T08:12:48.368Z,13.87
2019-04-14T08:15:20.981Z,13.97
2019-04-14T08:17:53.503Z,13.97
2019-04-14T08:20:27.717Z,14.20
2019-04-14T08:23:00.224Z,14.43
2019-04-14T08:25:32.473Z,13.57
2019-04-14T08:28:04.764Z,13.57
2019-04-14T08:30:36.919Z,14.60
2019-04-14T08:33:09.360Z,14.17
2019-04-14T08:35:41.492Z,15.10
2019-04-14T08:38:14.067Z,13.83
2019-04-14T08:40:46.432Z,15.77
2019-04-14T08:43:29.134Z,15.13
2019-04-14T08:46:23.686Z,15.13
2019-04-14T08:49:01.136Z,15.20
2019-04-14T08:51:37.908Z,14.50
2019-04-14T08:54:27.308Z,14.63
2019-04-14T08:57:10.763Z,14.47
2019-04-14T08:59:58.400Z,14.07
2019-04-14T09:02:47.651Z,13.97
2019-04-14T09:05:38.137Z,13.20
2019-04-14T09:08:18.444Z,14.33
2019-04-14T09:10:55.022Z,13.47
2019-04-14T09:13:27.674Z,14.00
2019-04-14T09:16:00.077Z,14.90
2019-04-14T09:18:32.452Z,14.10
2019-04-14T09:21:04.844Z,13.03
2019-04-14T09:23:37.116Z,13.67
2019-04-14T09:26:09.638Z,13.83
2019-04-14T09:28:42.092Z,14.33
2019-04-14T09:31:14.515Z,14.83
2019-04-14T09:33:46.890Z,13.27
2019-04-14T09:36:20.549Z,12.80
2019-04-14T09:38:52.991Z,12.20
2019-04-14T09:41:25.283Z,14.10
2019-04-14T09:43:57.879Z,13.47
2019-04-14T09:46:30.491Z,14.40
2019-04-14T09:49:02.955Z,13.50
2019-04-14T09:51:35.039Z,13.63
2019-04-14T09:54:07.153Z,13.60
2019-04-14T09:56:39.608Z,13.30
2019-04-14T09:59:11.715Z,13.23
2019-04-14T10:01:44.097Z,13.90
2019-04-14T10:04:16.826Z,13.77
2019-04-14T10:06:49.175Z,13.90
2019-04-14T10:09:21.458Z,13.10
2019-04-14T10:11:56.450Z,12.33
2019-04-14T10:14:27.847Z,13.07
2019-04-14T10:17:01.513Z,13.80
2019-04-14T10:19:33.918Z,14.10
2019-04-14T10:22:06.673Z,13.87
2019-04-14T10:24:38.922Z,13.43
2019-04-14T10:27:11.265Z,13.30
2019-04-14T10:29:43.617Z,14.20
2019-04-14T10:32:15.856Z,13.03
2019-04-14T10:34:48.837Z,14.47
2019-04-14T10:37:21.162Z,14.17
2019-04-14T10:39:53.404Z,13.30
2019-04-14T10:42:25.760Z,13.20
2019-04-14T10:44:58.238Z,14.30
2019-04-14T10:47:30.435Z,13.67
2019-04-14T10:50:03.060Z,14.53
2019-04-14T10:52:35.559Z,13.63
2019-04-14T10:55:08.184Z,14.33
2019-04-14T10:57:40.654Z,13.90
2019-04-14T11:00:16.087Z,13.60
2019-04-14T11:02:49.569Z,14.57
2019-04-14T11:05:22.881Z,14.47
2019-04-14T11:07:57.053Z,14.13
2019-04-14T11:10:29.331Z,13.63
2019-04-14T11:13:03.729Z,13.63
2019-04-14T11:15:39.112Z,13.97
2019-04-14T11:18:11.770Z,13.47
2019-04-14T11:20:43.976Z,14.20
2019-04-14T11:23:16.437Z,13.67
2019-04-14T11:25:49.046Z,12.67
2019-04-14T11:28:22.390Z,13.23
2019-04-14T11:30:57.424Z,13.50
2019-04-14T11:33:33.654Z,13.90
2019-04-14T11:36:25.876Z,13.53
2019-04-14T11:39:05.898Z,13.43
2019-04-14T11:41:40.110Z,13.17
2019-04-14T11:44:13.011Z,13.80
2019-04-14T11:46:45.590Z,13.33
2019-04-14T11:49:20.755Z,12.47
2019-04-14T11:51:55.448Z,13.57
2019-04-14T11:54:27.456Z,12.60
2019-04-14T11:57:00.369Z,12.70
2019-04-14T11:59:39.392Z,12.67
2019-04-14T12:02:18.835Z,12.90
2019-04-14T12:04:58.150Z,13.17
2019-04-14T12:07:44.652Z,12.63
2019-04-14T12:10:20.761Z,12.40
2019-04-14T12:12:54.101Z,12.97
2019-04-14T12:15:26.476Z,11.63
2019-04-14T12:17:59.407Z,12.00
2019-04-14T12:20:31.595Z,12.27
2019-04-14T12:23:03.928Z,12.00
2019-04-14T12:25:36.630Z,12.53
2019-04-14T12:28:09.208Z,12.20
2019-04-14T12:30:42.196Z,12.40
2019-04-14T12:33:15.266Z,11.67
2019-04-14T12:35:47.520Z,12.47
2019-04-14T12:38:19.631Z,12.53
2019-04-14T12:40:52.826Z,11.97
2019-04-14T12:43:43.278Z,11.57
2019-04-14T12:46:43.603Z,11.77
2019-04-14T12:49:26.375Z,12.80
2019-04-14T12:52:21.388Z,11.93
2019-04-14T12:54:51.627Z,11.43
2019-04-14T12:57:41.954Z,10.83
2019-04-14T13:00:50.693Z,12.07
2019-04-14T13:03:24.376Z,12.20
2019-04-14T13:05:57.309Z,11.50
2019-04-14T13:08:29.625Z,12.13
2019-04-14T13:11:02.144Z,12.10
2019-04-14T13:13:34.851Z,12.37
2019-04-14T13:16:07.065Z,11.00
2019-04-14T13:18:39.309Z,11.37
2019-04-14T13:21:11.677Z,11.60
2019-04-14T13:23:44.186Z,10.17
2019-04-14T13:26:16.463Z,11.17
2019-04-14T13:28:48.866Z,12.07
2019-04-14T13:31:21.286Z,11.17
2019-04-14T13:33:54.966Z,11.50
2019-04-14T13:36:27.512Z,10.73
2019-04-14T13:38:59.907Z,11.13
2019-04-14T13:41:32.016Z,10.40
2019-04-14T13:44:04.610Z,10.67
2019-04-14T13:46:36.955Z,10.63
2019-04-14T13:49:09.233Z,10.17
2019-04-14T13:51:41.819Z,10.30
2019-04-14T13:54:14.227Z,9.60
2019-04-14T13:56:46.605Z,9.87
2019-04-14T13:59:19.272Z,10.37
2019-04-14T14:01:51.904Z,10.23
2019-04-14T14:04:24.506Z,10.00
2019-04-14T14:06:56.813Z,10.23
2019-04-14T14:09:29.300Z,9.47
2019-04-14T14:12:24.150Z,10.30
2019-04-14T14:15:24.759Z,9.93
2019-04-14T14:18:16.458Z,9.90
2019-04-14T14:21:23.681Z,9.67
2019-04-14T14:24:13.864Z,9.80
2019-04-14T14:26:47.278Z,9.50
2019-04-14T14:29:19.944Z,9.90
2019-04-14T14:31:53.187Z,8.80
2019-04-14T14:34:26.119Z,9.80
2019-04-14T14:36:58.314Z,9.23
2019-04-14T14:39:30.781Z,9.90
2019-04-14T14:42:03.166Z,9.33
2019-04-14T14:44:46.545Z,10.07
2019-04-14T14:47:22.548Z,10.33
2019-04-14T14:50:20.435Z,10.17
2019-04-14T14:52:52.693Z,8.20
2019-04-14T14:55:25.016Z,9.23
2019-04-14T14:57:57.171Z,9.80
2019-04-14T15:00:35.415Z,9.67
2019-04-14T15:03:08.104Z,9.07
2019-04-14T15:05:40.412Z,9.67
2019-04-14T15:08:12.796Z,10.03
2019-04-14T15:10:45.165Z,9.80
2019-04-14T15:13:17.627Z,10.07
2019-04-14T15:15:50.229Z,10.17
2019-04-14T15:18:22.638Z,10.00
2019-04-14T15:20:54.990Z,9.60
2019-04-14T15:23:27.365Z,9.17
2019-04-14T15:25:59.820Z,9.13
2019-04-14T15:28:32.471Z,8.87
2019-04-14T15:31:04.824Z,8.93
2019-04-14T15:33:37.214Z,9.10
2019-04-14T15:36:09.691Z,8.50
2019-04-14T15:38:42.120Z,8.67
2019-04-14T15:41:14.415Z,9.47
2019-04-14T15:43:47.075Z,8.77
2019-04-14T15:46:19.392Z,9.13
2019-04-14T15:48:51.682Z,9.03
2019-04-14T15:51:23.887Z,8.50
2019-04-14T15:53:56.390Z,9.57
2019-04-14T15:56:50.956Z,9.63
2019-04-14T15:59:42.855Z,8.93
2019-04-14T16:02:30.006Z,9.47
2019-04-14T16:05:12.643Z,9.67
2019-04-14T16:07:55.739Z,9.47
2019-04-14T16:10:47.789Z,9.17
2019-04-14T16:13:36.541Z,9.53
2019-04-14T16:16:40.472Z,10.17
2019-04-14T16:19:17.150Z,8.97
2019-04-14T16:21:49.622Z,9.43
2019-04-14T16:24:21.957Z,9.60
2019-04-14T16:27:12.536Z,9.90
2019-04-14T16:29:54.921Z,9.10
2019-04-14T16:32:35.258Z,9.20
2019-04-14T16:35:14.375Z,9.83
2019-04-14T16:37:47.227Z,9.37
2019-04-14T16:40:19.791Z,9.13
2019-04-14T16:42:52.023Z,9.57
2019-04-14T16:45:24.469Z,9.13
2019-04-14T16:47:56.687Z,9.70
2019-04-14T16:50:29.214Z,9.47
2019-04-14T16:53:20.413Z,9.23
2019-04-14T16:56:16.251Z,8.53
2019-04-14T16:58:54.467Z,8.17
2019-04-14T17:01:31.585Z,8.53
2019-04-14T17:04:03.981Z,7.50
2019-04-14T17:06:36.715Z,9.63
2019-04-14T17:09:09.173Z,8.50
2019-04-14T17:11:41.674Z,8.43
2019-04-14T17:14:29.205Z,9.30
2019-04-14T17:17:19.683Z,8.40
2019-04-14T17:20:17.987Z,8.00
2019-04-14T17:23:08.469Z,8.57
2019-04-14T17:25:52.563Z,8.67
2019-04-14T17:28:48.215Z,8.90
2019-04-14T17:31:55.224Z,9.27
2019-04-14T17:34:47.188Z,8.73
2019-04-14T17:37:39.320Z,9.00
2019-04-14T17:40:24.822Z,9.03
2019-04-14T17:43:13.191Z,8.23
2019-04-14T17:46:00.942Z,9.10
2019-04-14T17:48:57.327Z,9.60
2019-04-14T17:51:37.170Z,8.90
2019-04-14T17:54:28.620Z,9.33
2019-04-14T17:57:18.562Z,8.93
2019-04-14T18:00:03.078Z,8.70
2019-04-14T18:02:55.257Z,9.03
2019-04-14T18:05:45.710Z,9.40
2019-04-14T18:08:34.976Z,8.93
2019-04-14T18:11:13.084Z,8.23
2019-04-14T18:14:04.951Z,10.00
2019-04-14T18:16:55.319Z,9.00
2019-04-14T18:19:36.233Z,9.47
2019-04-14T18:22:09.356Z,9.40
2019-04-14T18:24:42.972Z,8.40
2019-04-14T18:27:15.439Z,9.10
2019-04-14T18:30:08.456Z,8.67
2019-04-14T18:32:46.574Z,8.90
2019-04-14T18:35:41.175Z,8.63
2019-04-14T18:38:39.001Z,8.80
2019-04-14T18:41:18.088Z,8.00
2019-04-14T18:44:05.351Z,8.00
2019-04-14T18:47:06.239Z,8.27
2019-04-14T18:49:48.107Z,7.47
2019-04-14T18:52:38.648Z,7.13
2019-04-14T18:55:33.468Z,7.27
2019-04-14T18:58:29.715Z,8.53
2019-04-14T19:01:09.172Z,7.50
2019-04-14T19:03:41.313Z,6.50
2019-04-14T19:06:14.098Z,6.50
2019-04-14T19:08:46.370Z,5.83
2019-04-14T19:11:35.788Z,6.53
2019-04-14T19:14:09.260Z,5.57
2019-04-14T19:16:44.674Z,6.50
2019-04-14T19:19:18.288Z,6.13
2019-04-14T19:21:50.973Z,5.70
2019-04-14T19:24:23.372Z,5.80
2019-04-14T19:26:55.999Z,5.97
2019-04-14T19:29:28.863Z,6.37
2019-04-14T19:32:01.389Z,5.70
2019-04-14T19:34:33.671Z,5.70
2019-04-14T19:37:06.451Z,6.00
2019-04-14T19:39:38.662Z,5.40
2019-04-14T19:42:11.761Z,5.63
2019-04-14T19:44:44.132Z,5.57
2019-04-14T19:47:16.507Z,5.67
2019-04-14T19:49:48.791Z,6.23
2019-04-14T19:52:21.175Z,5.70
2019-04-14T19:54:53.559Z,5.60
2019-04-14T19:57:26.005Z,4.67
2019-04-14T19:59:58.480Z,4.70
2019-04-14T20:02:31.160Z,4.77
2019-04-14T20:05:04.006Z,4.73
2019-04-14T20:07:36.366Z,5.03
2019-04-14T20:10:09.521Z,6.27
2019-04-14T20:12:42.128Z,5.63
2019-04-14T20:15:17.839Z,5.63
2019-04-14T20:17:55.719Z,5.10
2019-04-14T20:20:50.338Z,5.27
2019-04-14T20:23:45.258Z,4.70
2019-04-14T20:26:35.178Z,5.07
2019-04-14T20:29:13.104Z,5.37
2019-04-14T20:32:13.917Z,5.27
2019-04-14T20:34:46.326Z,4.83
2019-04-14T20:37:18.516Z,4.90
2019-04-14T20:39:51.258Z,4.93
2019-04-14T20:42:23.832Z,4.47
2019-04-14T20:44:56.090Z,4.80
2019-04-14T20:47:28.361Z,4.87
2019-04-14T20:50:01.185Z,4.57
2019-04-14T20:52:33.762Z,4.67
2019-04-14T20:55:08.359Z,4.60
2019-04-14T20:57:40.719Z,5.37
2019-04-14T21:00:13.100Z,5.27
2019-04-14T21:03:11.209Z,4.70
2019-04-14T21:06:01.762Z,4.87
2019-04-14T21:08:52.202Z,5.50
2019-04-14T21:11:42.057Z,4.83
2019-04-14T21:14:31.894Z,5.67
2019-04-14T21:17:10.924Z,4.57
2019-04-14T21:20:00.067Z,5.67
2019-04-14T21:22:39.639Z,5.00
2019-04-14T21:25:40.554Z,5.37
2019-04-14T21:28:44.763Z,5.37
2019-04-14T21:31:25.292Z,5.03
2019-04-14T21:34:08.382Z,5.37
2019-04-14T21:36:58.596Z,5.30
2019-04-14T21:39:53.499Z,5.30
2019-04-14T21:42:25.916Z,5.77
2019-04-14T21:44:58.359Z,5.73
2019-04-14T21:47:30.821Z,5.37
2019-04-14T21:50:04.331Z,5.50
2019-04-14T21:52:39.327Z,5.53
2019-04-14T21:55:11.862Z,5.43
2019-04-14T21:58:21.874Z,6.93
2019-04-14T22:01:43.735Z,5.53
2019-04-14T22:04:34.274Z,5.93
2019-04-14T22:07:41.533Z,5.50
2019-04-14T22:10:32.280Z,5.87
2019-04-14T22:13:04.816Z,7.00
2019-04-14T22:15:37.330Z,5.90
2019-04-14T22:18:09.706Z,5.60
2019-04-14T22:20:42.189Z,5.50
2019-04-14T22:23:14.855Z,5.57
2019-04-14T22:25:47.157Z,5.20
2019-04-14T22:28:20.066Z,5.60
2019-04-14T22:30:52.818Z,5.73
2019-04-14T22:33:25.443Z,5.73
2019-04-14T22:35:58.212Z,5.73
2019-04-14T22:38:30.617Z,5.37
2019-04-14T22:41:03.204Z,5.47
2019-04-14T22:43:35.477Z,5.83
2019-04-14T22:46:08.082Z,5.50
2019-04-14T22:48:40.425Z,5.77
2019-04-14T22:51:12.766Z,5.83
2019-04-14T22:53:45.030Z,5.80
2019-04-14T22:56:17.249Z,5.87
2019-04-14T22:58:49.702Z,5.70
2019-04-14T23:01:25.934Z,5.40
2019-04-14T23:04:12.855Z,5.37
2019-04-14T23:07:03.336Z,5.50
2019-04-14T23:09:45.806Z,6.00
2019-04-14T23:12:41.110Z,6.20
2019-04-14T23:15:23.245Z,5.50
2019-04-14T23:18:02.673Z,5.10
2019-04-14T23:20:45.414Z,5.40
2019-04-14T23:23:43.011Z,6.30
2019-04-14T23:26:15.306Z,5.50
2019-04-14T23:28:47.560Z,5.60
2019-04-14T23:31:19.929Z,5.80
2019-04-14T23:33:52.288Z,5.57
2019-04-14T23:36:24.914Z,5.90
2019-04-14T23:38:57.250Z,5.90
2019-04-14T23:41:29.608Z,5.70
2019-04-14T23:44:01.907Z,5.60
2019-04-14T23:46:34.040Z,6.30
2019-04-14T23:49:06.252Z,5.33
2019-04-14T23:51:39.056Z,5.33
2019-04-14T23:54:11.387Z,6.00
2019-04-14T23:56:43.832Z,6.23
2019-04-14T23:59:16.149Z,6.10
